sensor_id;sensor_type;location;lat;lon;timestamp;temperature;humidity
48206;DHT22;33995;48.202;16.260;2024-01-30T00:01:30;1.80;99.90
48206;DHT22;33995;48.202;16.260;2024-01-30T00:03:57;1.90;99.90
48206;DHT22;33995;48.202;16.260;2024-01-30T00:06:28;1.90;99.90
48206;DHT22;33995;48.202;16.260;2024-01-30T00:08:55;1.90;99.90
48206;DHT22;33995;48.202;16.260;2024-01-30T00:11:22;1.80;99.90
48206;DHT22;33995;48.202;16.260;2024-01-30T00:13:52;1.80;99.90
48206;DHT22;33995;48.202;16.260;2024-01-30T00:16:23;1.80;99.90
48206;DHT22;33995;48.202;16.260;2024-01-30T00:18:54;1.80;99.90
48206;DHT22;33995;48.202;16.260;2024-01-30T00:21:22;1.80;99.90
48206;DHT22;33995;48.202;16.260;2024-01-30T00:23:52;1.70;99.90
48206;DHT22;33995;48.202;16.260;2024-01-30T00:26:19;1.70;99.90
48206;DHT22;33995;48.202;16.260;2024-01-30T00:28:47;1.70;99.90
48206;DHT22;33995;48.202;16.260;2024-01-30T00:31:17;1.70;99.90
48206;DHT22;33995;48.202;16.260;2024-01-30T00:33:45;1.80;99.90
48206;DHT22;33995;48.202;16.260;2024-01-30T00:36:18;1.70;99.90
48206;DHT22;33995;48.202;16.260;2024-01-30T00:38:46;1.70;99.90
48206;DHT22;33995;48.202;16.260;2024-01-30T00:41:13;1.60;99.90
48206;DHT22;33995;48.202;16.260;2024-01-30T00:43:40;1.70;99.90
48206;DHT22;33995;48.202;16.260;2024-01-30T00:46:09;1.60;99.90
48206;DHT22;33995;48.202;16.260;2024-01-30T00:48:36;1.60;99.90
48206;DHT22;33995;48.202;16.260;2024-01-30T00:51:03;1.60;99.90
48206;DHT22;33995;48.202;16.260;2024-01-30T00:53:34;1.60;99.90
48206;DHT22;33995;48.202;16.260;2024-01-30T00:56:02;1.60;99.90
48206;DHT22;33995;48.202;16.260;2024-01-30T00:58:30;1.60;99.90
48206;DHT22;33995;48.202;16.260;2024-01-30T01:00:57;1.60;99.90
48206;DHT22;33995;48.202;16.260;2024-01-30T01:03:24;1.60;99.90
48206;DHT22;33995;48.202;16.260;2024-01-30T01:05:51;1.50;99.90
48206;DHT22;33995;48.202;16.260;2024-01-30T01:08:18;1.60;99.90
48206;DHT22;33995;48.202;16.260;2024-01-30T01:10:45;1.60;99.90
48206;DHT22;33995;48.202;16.260;2024-01-30T01:13:16;1.50;99.90
48206;DHT22;33995;48.202;16.260;2024-01-30T01:15:46;1.60;99.90
48206;DHT22;33995;48.202;16.260;2024-01-30T01:18:16;1.50;99.90
48206;DHT22;33995;48.202;16.260;2024-01-30T01:20:46;1.50;99.90
48206;DHT22;33995;48.202;16.260;2024-01-30T01:23:13;1.50;99.90
48206;DHT22;33995;48.202;16.260;2024-01-30T01:25:44;1.50;99.90
48206;DHT22;33995;48.202;16.260;2024-01-30T01:28:11;1.50;99.90
48206;DHT22;33995;48.202;16.260;2024-01-30T01:30:38;1.60;99.90
48206;DHT22;33995;48.202;16.260;2024-01-30T01:33:06;1.60;99.90
48206;DHT22;33995;48.202;16.260;2024-01-30T01:35:33;1.50;99.90
48206;DHT22;33995;48.202;16.260;2024-01-30T01:38:00;1.50;99.90
48206;DHT22;33995;48.202;16.260;2024-01-30T01:40:31;1.40;99.90
48206;DHT22;33995;48.202;16.260;2024-01-30T01:42:58;1.50;99.90
48206;DHT22;33995;48.202;16.260;2024-01-30T01:45:28;1.50;99.90
48206;DHT22;33995;48.202;16.260;2024-01-30T01:47:58;1.50;99.90
48206;DHT22;33995;48.202;16.260;2024-01-30T01:50:26;1.40;99.90
48206;DHT22;33995;48.202;16.260;2024-01-30T01:52:58;1.40;99.90
48206;DHT22;33995;48.202;16.260;2024-01-30T01:55:25;1.40;99.90
48206;DHT22;33995;48.202;16.260;2024-01-30T01:57:55;1.40;99.90
48206;DHT22;33995;48.202;16.260;2024-01-30T02:00:23;1.40;99.90
48206;DHT22;33995;48.202;16.260;2024-01-30T02:02:50;1.30;99.90
48206;DHT22;33995;48.202;16.260;2024-01-30T02:05:25;1.30;99.90
48206;DHT22;33995;48.202;16.260;2024-01-30T02:07:56;1.30;99.90
48206;DHT22;33995;48.202;16.260;2024-01-30T02:10:24;1.40;99.90
48206;DHT22;33995;48.202;16.260;2024-01-30T02:12:51;1.30;99.90
48206;DHT22;33995;48.202;16.260;2024-01-30T02:15:20;1.30;99.90
48206;DHT22;33995;48.202;16.260;2024-01-30T02:17:47;1.30;99.90
48206;DHT22;33995;48.202;16.260;2024-01-30T02:20:15;1.30;99.90
48206;DHT22;33995;48.202;16.260;2024-01-30T02:22:42;1.30;99.90
48206;DHT22;33995;48.202;16.260;2024-01-30T02:25:10;1.30;99.90
48206;DHT22;33995;48.202;16.260;2024-01-30T02:27:37;1.40;99.90
48206;DHT22;33995;48.202;16.260;2024-01-30T02:30:05;1.40;99.90
48206;DHT22;33995;48.202;16.260;2024-01-30T02:32:33;1.40;99.90
48206;DHT22;33995;48.202;16.260;2024-01-30T02:35:00;1.40;99.90
48206;DHT22;33995;48.202;16.260;2024-01-30T02:37:28;1.40;99.90
48206;DHT22;33995;48.202;16.260;2024-01-30T02:39:55;1.40;99.90
48206;DHT22;33995;48.202;16.260;2024-01-30T02:42:22;1.30;99.90
48206;DHT22;33995;48.202;16.260;2024-01-30T02:44:49;1.20;99.90
48206;DHT22;33995;48.202;16.260;2024-01-30T02:47:16;1.20;99.90
48206;DHT22;33995;48.202;16.260;2024-01-30T02:49:43;1.30;99.90
48206;DHT22;33995;48.202;16.260;2024-01-30T02:52:10;1.20;99.90
48206;DHT22;33995;48.202;16.260;2024-01-30T02:54:41;1.30;99.90
48206;DHT22;33995;48.202;16.260;2024-01-30T02:57:08;1.30;99.90
48206;DHT22;33995;48.202;16.260;2024-01-30T02:59:38;1.30;99.90
48206;DHT22;33995;48.202;16.260;2024-01-30T03:02:08;1.30;99.90
48206;DHT22;33995;48.202;16.260;2024-01-30T03:04:38;1.40;99.90
48206;DHT22;33995;48.202;16.260;2024-01-30T03:07:07;1.40;99.90
48206;DHT22;33995;48.202;16.260;2024-01-30T03:09:34;1.40;99.90
48206;DHT22;33995;48.202;16.260;2024-01-30T03:12:05;1.40;99.90
48206;DHT22;33995;48.202;16.260;2024-01-30T03:14:37;1.40;99.90
48206;DHT22;33995;48.202;16.260;2024-01-30T03:17:04;1.40;99.90
48206;DHT22;33995;48.202;16.260;2024-01-30T03:19:32;1.30;99.90
48206;DHT22;33995;48.202;16.260;2024-01-30T03:22:00;1.40;99.90
48206;DHT22;33995;48.202;16.260;2024-01-30T03:24:27;1.30;99.90
48206;DHT22;33995;48.202;16.260;2024-01-30T03:26:55;1.20;99.90
48206;DHT22;33995;48.202;16.260;2024-01-30T03:29:22;1.20;99.90
48206;DHT22;33995;48.202;16.260;2024-01-30T03:31:52;1.30;99.90
48206;DHT22;33995;48.202;16.260;2024-01-30T03:34:19;1.30;99.90
48206;DHT22;33995;48.202;16.260;2024-01-30T03:36:49;1.30;99.90
48206;DHT22;33995;48.202;16.260;2024-01-30T03:39:16;1.20;99.90
48206;DHT22;33995;48.202;16.260;2024-01-30T03:41:43;1.20;99.90
48206;DHT22;33995;48.202;16.260;2024-01-30T03:44:11;1.20;99.90
48206;DHT22;33995;48.202;16.260;2024-01-30T03:46:41;1.20;99.90
48206;DHT22;33995;48.202;16.260;2024-01-30T03:49:09;1.20;99.90
48206;DHT22;33995;48.202;16.260;2024-01-30T03:51:36;1.20;99.90
48206;DHT22;33995;48.202;16.260;2024-01-30T03:54:03;1.20;99.90
48206;DHT22;33995;48.202;16.260;2024-01-30T03:56:30;1.20;99.90
48206;DHT22;33995;48.202;16.260;2024-01-30T03:59:00;1.10;99.90
48206;DHT22;33995;48.202;16.260;2024-01-30T04:01:30;1.20;99.90
48206;DHT22;33995;48.202;16.260;2024-01-30T04:03:57;1.10;99.90
48206;DHT22;33995;48.202;16.260;2024-01-30T04:06:29;1.10;99.90
48206;DHT22;33995;48.202;16.260;2024-01-30T04:08:59;1.10;99.90
48206;DHT22;33995;48.202;16.260;2024-01-30T04:11:26;1.10;99.90
48206;DHT22;33995;48.202;16.260;2024-01-30T04:13:56;1.10;99.90
48206;DHT22;33995;48.202;16.260;2024-01-30T04:16:23;1.00;99.90
48206;DHT22;33995;48.202;16.260;2024-01-30T04:18:52;1.00;99.90
48206;DHT22;33995;48.202;16.260;2024-01-30T04:21:21;1.00;99.90
48206;DHT22;33995;48.202;16.260;2024-01-30T04:23:50;1.00;99.90
48206;DHT22;33995;48.202;16.260;2024-01-30T04:26:22;1.00;99.90
48206;DHT22;33995;48.202;16.260;2024-01-30T04:28:50;1.00;99.90
48206;DHT22;33995;48.202;16.260;2024-01-30T04:31:17;0.90;99.90
48206;DHT22;33995;48.202;16.260;2024-01-30T04:33:46;0.90;99.90
48206;DHT22;33995;48.202;16.260;2024-01-30T04:36:13;0.90;99.90
48206;DHT22;33995;48.202;16.260;2024-01-30T04:38:44;0.80;99.90
48206;DHT22;33995;48.202;16.260;2024-01-30T04:41:11;0.80;99.90
48206;DHT22;33995;48.202;16.260;2024-01-30T04:43:37;0.80;99.90
48206;DHT22;33995;48.202;16.260;2024-01-30T04:46:04;0.80;99.90
48206;DHT22;33995;48.202;16.260;2024-01-30T04:48:39;0.70;99.90
48206;DHT22;33995;48.202;16.260;2024-01-30T04:51:06;0.70;99.90
48206;DHT22;33995;48.202;16.260;2024-01-30T04:53:36;0.80;99.90
48206;DHT22;33995;48.202;16.260;2024-01-30T04:56:04;0.70;99.90
48206;DHT22;33995;48.202;16.260;2024-01-30T04:58:32;0.70;99.90
48206;DHT22;33995;48.202;16.260;2024-01-30T05:00:59;0.70;99.90
48206;DHT22;33995;48.202;16.260;2024-01-30T05:03:26;0.60;99.90
48206;DHT22;33995;48.202;16.260;2024-01-30T05:05:53;0.70;99.90
48206;DHT22;33995;48.202;16.260;2024-01-30T05:08:20;0.60;99.90
48206;DHT22;33995;48.202;16.260;2024-01-30T05:10:54;0.60;99.90
48206;DHT22;33995;48.202;16.260;2024-01-30T05:13:21;0.50;99.90
48206;DHT22;33995;48.202;16.260;2024-01-30T05:15:49;0.50;99.90
48206;DHT22;33995;48.202;16.260;2024-01-30T05:18:19;0.60;99.90
48206;DHT22;33995;48.202;16.260;2024-01-30T05:20:46;0.50;99.90
48206;DHT22;33995;48.202;16.260;2024-01-30T05:23:13;0.50;99.90
48206;DHT22;33995;48.202;16.260;2024-01-30T05:25:46;0.40;99.90
48206;DHT22;33995;48.202;16.260;2024-01-30T05:28:15;0.40;99.90
48206;DHT22;33995;48.202;16.260;2024-01-30T05:30:43;0.40;99.90
48206;DHT22;33995;48.202;16.260;2024-01-30T05:33:10;0.40;99.90
48206;DHT22;33995;48.202;16.260;2024-01-30T05:35:40;0.40;99.90
48206;DHT22;33995;48.202;16.260;2024-01-30T05:38:09;0.40;99.90
48206;DHT22;33995;48.202;16.260;2024-01-30T05:40:39;0.40;99.90
48206;DHT22;33995;48.202;16.260;2024-01-30T05:43:09;0.40;99.90
48206;DHT22;33995;48.202;16.260;2024-01-30T05:45:38;0.30;99.90
48206;DHT22;33995;48.202;16.260;2024-01-30T05:48:07;0.40;99.90
48206;DHT22;33995;48.202;16.260;2024-01-30T05:50:40;0.30;99.90
48206;DHT22;33995;48.202;16.260;2024-01-30T05:53:07;0.30;99.90
48206;DHT22;33995;48.202;16.260;2024-01-30T05:55:35;0.30;99.90
48206;DHT22;33995;48.202;16.260;2024-01-30T05:58:02;0.30;99.90
48206;DHT22;33995;48.202;16.260;2024-01-30T06:00:29;0.30;99.90
48206;DHT22;33995;48.202;16.260;2024-01-30T06:02:56;0.30;99.90
48206;DHT22;33995;48.202;16.260;2024-01-30T06:05:29;0.30;99.90
48206;DHT22;33995;48.202;16.260;2024-01-30T06:07:56;0.20;99.90
48206;DHT22;33995;48.202;16.260;2024-01-30T06:10:23;0.20;99.90
48206;DHT22;33995;48.202;16.260;2024-01-30T06:12:53;0.20;99.90
48206;DHT22;33995;48.202;16.260;2024-01-30T06:15:21;0.20;99.90
48206;DHT22;33995;48.202;16.260;2024-01-30T06:17:47;0.20;99.90
48206;DHT22;33995;48.202;16.260;2024-01-30T06:20:15;0.20;99.90
48206;DHT22;33995;48.202;16.260;2024-01-30T06:22:45;0.20;99.90
48206;DHT22;33995;48.202;16.260;2024-01-30T06:25:13;0.30;99.90
48206;DHT22;33995;48.202;16.260;2024-01-30T06:27:43;0.20;99.90
48206;DHT22;33995;48.202;16.260;2024-01-30T06:30:14;0.20;99.90
48206;DHT22;33995;48.202;16.260;2024-01-30T06:32:41;0.20;99.90
48206;DHT22;33995;48.202;16.260;2024-01-30T06:35:11;0.20;99.90
48206;DHT22;33995;48.202;16.260;2024-01-30T06:37:39;0.20;99.90
48206;DHT22;33995;48.202;16.260;2024-01-30T06:40:06;0.30;99.90
48206;DHT22;33995;48.202;16.260;2024-01-30T06:42:34;0.30;99.90
48206;DHT22;33995;48.202;16.260;2024-01-30T06:45:01;0.30;99.90
48206;DHT22;33995;48.202;16.260;2024-01-30T06:47:31;0.30;99.90
48206;DHT22;33995;48.202;16.260;2024-01-30T06:49:59;0.30;99.90
48206;DHT22;33995;48.202;16.260;2024-01-30T06:52:27;0.30;99.90
48206;DHT22;33995;48.202;16.260;2024-01-30T06:54:55;0.20;99.90
48206;DHT22;33995;48.202;16.260;2024-01-30T06:57:23;0.20;99.90
48206;DHT22;33995;48.202;16.260;2024-01-30T06:59:53;0.00;99.90
48206;DHT22;33995;48.202;16.260;2024-01-30T07:02:20;0.00;99.90
48206;DHT22;33995;48.202;16.260;2024-01-30T07:04:47;0.00;99.90
48206;DHT22;33995;48.202;16.260;2024-01-30T07:07:15;0.00;99.90
48206;DHT22;33995;48.202;16.260;2024-01-30T07:09:45;0.00;99.90
48206;DHT22;33995;48.202;16.260;2024-01-30T07:12:14;0.10;99.90
48206;DHT22;33995;48.202;16.260;2024-01-30T07:14:41;0.30;99.90
48206;DHT22;33995;48.202;16.260;2024-01-30T07:17:09;0.40;99.90
48206;DHT22;33995;48.202;16.260;2024-01-30T07:19:36;0.60;99.90
48206;DHT22;33995;48.202;16.260;2024-01-30T07:22:04;0.70;99.90
48206;DHT22;33995;48.202;16.260;2024-01-30T07:24:31;0.70;99.90
48206;DHT22;33995;48.202;16.260;2024-01-30T07:27:03;0.80;99.90
48206;DHT22;33995;48.202;16.260;2024-01-30T07:29:30;0.80;99.90
48206;DHT22;33995;48.202;16.260;2024-01-30T07:31:57;0.90;99.90
48206;DHT22;33995;48.202;16.260;2024-01-30T07:34:24;1.10;99.90
48206;DHT22;33995;48.202;16.260;2024-01-30T07:36:51;1.20;99.90
48206;DHT22;33995;48.202;16.260;2024-01-30T07:39:22;1.20;99.90
48206;DHT22;33995;48.202;16.260;2024-01-30T07:41:52;1.30;99.90
48206;DHT22;33995;48.202;16.260;2024-01-30T07:44:19;1.40;99.90
48206;DHT22;33995;48.202;16.260;2024-01-30T07:46:45;1.50;99.90
48206;DHT22;33995;48.202;16.260;2024-01-30T07:49:12;1.70;99.90
48206;DHT22;33995;48.202;16.260;2024-01-30T07:51:41;1.90;99.90
48206;DHT22;33995;48.202;16.260;2024-01-30T07:54:12;2.00;99.90
48206;DHT22;33995;48.202;16.260;2024-01-30T07:56:45;2.10;99.90
48206;DHT22;33995;48.202;16.260;2024-01-30T07:59:22;2.10;99.90
48206;DHT22;33995;48.202;16.260;2024-01-30T08:01:51;2.10;99.90
48206;DHT22;33995;48.202;16.260;2024-01-30T08:04:19;2.30;99.90
48206;DHT22;33995;48.202;16.260;2024-01-30T08:06:46;2.50;99.90
48206;DHT22;33995;48.202;16.260;2024-01-30T08:09:17;2.60;99.90
48206;DHT22;33995;48.202;16.260;2024-01-30T08:11:53;2.80;99.90
48206;DHT22;33995;48.202;16.260;2024-01-30T08:14:20;2.90;99.90
48206;DHT22;33995;48.202;16.260;2024-01-30T08:16:50;3.00;99.90
48206;DHT22;33995;48.202;16.260;2024-01-30T08:19:17;3.20;99.90
48206;DHT22;33995;48.202;16.260;2024-01-30T08:21:44;3.30;99.90
48206;DHT22;33995;48.202;16.260;2024-01-30T08:24:11;3.50;99.90
48206;DHT22;33995;48.202;16.260;2024-01-30T08:26:38;3.50;99.90
48206;DHT22;33995;48.202;16.260;2024-01-30T08:29:05;3.70;99.90
48206;DHT22;33995;48.202;16.260;2024-01-30T08:31:33;3.80;99.90
48206;DHT22;33995;48.202;16.260;2024-01-30T08:34:00;3.60;99.90
48206;DHT22;33995;48.202;16.260;2024-01-30T08:36:27;3.50;99.90
48206;DHT22;33995;48.202;16.260;2024-01-30T08:38:54;3.60;99.90
48206;DHT22;33995;48.202;16.260;2024-01-30T08:41:27;3.70;99.90
48206;DHT22;33995;48.202;16.260;2024-01-30T08:43:54;3.90;99.90
48206;DHT22;33995;48.202;16.260;2024-01-30T08:46:21;3.90;99.90
48206;DHT22;33995;48.202;16.260;2024-01-30T08:48:48;3.80;99.90
48206;DHT22;33995;48.202;16.260;2024-01-30T08:51:19;3.90;99.90
48206;DHT22;33995;48.202;16.260;2024-01-30T08:53:46;4.00;99.90
48206;DHT22;33995;48.202;16.260;2024-01-30T08:56:13;3.90;99.90
48206;DHT22;33995;48.202;16.260;2024-01-30T08:58:40;3.90;99.90
48206;DHT22;33995;48.202;16.260;2024-01-30T09:01:11;3.90;99.90
48206;DHT22;33995;48.202;16.260;2024-01-30T09:03:41;4.00;99.90
48206;DHT22;33995;48.202;16.260;2024-01-30T09:06:10;4.10;99.90
48206;DHT22;33995;48.202;16.260;2024-01-30T09:08:39;4.30;99.90
48206;DHT22;33995;48.202;16.260;2024-01-30T09:11:18;4.30;99.90
48206;DHT22;33995;48.202;16.260;2024-01-30T09:13:45;4.10;99.90
48206;DHT22;33995;48.202;16.260;2024-01-30T09:16:15;4.10;99.90
48206;DHT22;33995;48.202;16.260;2024-01-30T09:18:43;3.90;99.90
48206;DHT22;33995;48.202;16.260;2024-01-30T09:21:10;3.90;99.90
48206;DHT22;33995;48.202;16.260;2024-01-30T09:23:37;4.20;99.90
48206;DHT22;33995;48.202;16.260;2024-01-30T09:26:04;4.40;99.90
48206;DHT22;33995;48.202;16.260;2024-01-30T09:28:31;4.40;99.90
48206;DHT22;33995;48.202;16.260;2024-01-30T09:31:00;4.30;99.90
48206;DHT22;33995;48.202;16.260;2024-01-30T09:33:27;4.40;99.90
48206;DHT22;33995;48.202;16.260;2024-01-30T09:35:57;4.40;99.90
48206;DHT22;33995;48.202;16.260;2024-01-30T09:38:24;4.60;99.90
48206;DHT22;33995;48.202;16.260;2024-01-30T09:40:54;4.80;99.90
48206;DHT22;33995;48.202;16.260;2024-01-30T09:43:28;4.80;99.90
48206;DHT22;33995;48.202;16.260;2024-01-30T09:46:02;5.00;99.90
48206;DHT22;33995;48.202;16.260;2024-01-30T09:48:30;5.00;99.90
48206;DHT22;33995;48.202;16.260;2024-01-30T09:50:59;5.00;99.90
48206;DHT22;33995;48.202;16.260;2024-01-30T09:53:27;5.20;99.90
48206;DHT22;33995;48.202;16.260;2024-01-30T09:55:54;5.30;99.90
48206;DHT22;33995;48.202;16.260;2024-01-30T09:58:22;5.50;99.90
48206;DHT22;33995;48.202;16.260;2024-01-30T10:00:50;5.40;99.90
48206;DHT22;33995;48.202;16.260;2024-01-30T10:03:19;5.60;99.90
48206;DHT22;33995;48.202;16.260;2024-01-30T10:05:53;5.80;99.90
48206;DHT22;33995;48.202;16.260;2024-01-30T10:08:26;6.00;99.90
48206;DHT22;33995;48.202;16.260;2024-01-30T10:10:53;6.10;99.90
48206;DHT22;33995;48.202;16.260;2024-01-30T10:13:23;6.30;99.90
48206;DHT22;33995;48.202;16.260;2024-01-30T10:15:50;6.40;99.90
48206;DHT22;33995;48.202;16.260;2024-01-30T10:18:19;6.30;99.90
48206;DHT22;33995;48.202;16.260;2024-01-30T10:20:46;6.60;99.90
48206;DHT22;33995;48.202;16.260;2024-01-30T10:23:16;6.80;99.90
48206;DHT22;33995;48.202;16.260;2024-01-30T10:25:44;7.10;99.90
48206;DHT22;33995;48.202;16.260;2024-01-30T10:28:12;9.30;99.90
48206;DHT22;33995;48.202;16.260;2024-01-30T10:30:41;11.50;99.90
48206;DHT22;33995;48.202;16.260;2024-01-30T10:33:08;13.50;99.90
48206;DHT22;33995;48.202;16.260;2024-01-30T10:35:36;14.50;99.90
48206;DHT22;33995;48.202;16.260;2024-01-30T10:38:05;14.80;97.80
48206;DHT22;33995;48.202;16.260;2024-01-30T10:40:36;13.30;98.50
48206;DHT22;33995;48.202;16.260;2024-01-30T10:43:05;11.70;99.90
48206;DHT22;33995;48.202;16.260;2024-01-30T10:45:35;12.40;99.50
48206;DHT22;33995;48.202;16.260;2024-01-30T10:48:09;12.50;99.50
48206;DHT22;33995;48.202;16.260;2024-01-30T10:50:40;11.60;99.90
48206;DHT22;33995;48.202;16.260;2024-01-30T10:53:19;12.00;99.90
48206;DHT22;33995;48.202;16.260;2024-01-30T10:55:47;13.80;98.60
48206;DHT22;33995;48.202;16.260;2024-01-30T10:58:15;15.90;96.10
48206;DHT22;33995;48.202;16.260;2024-01-30T11:00:43;17.30;93.40
48206;DHT22;33995;48.202;16.260;2024-01-30T11:03:10;17.10;92.40
48206;DHT22;33995;48.202;16.260;2024-01-30T11:05:40;17.10;92.30
48206;DHT22;33995;48.202;16.260;2024-01-30T11:08:14;17.90;91.90
48206;DHT22;33995;48.202;16.260;2024-01-30T11:10:47;17.50;90.40
48206;DHT22;33995;48.202;16.260;2024-01-30T11:13:15;17.80;91.60
48206;DHT22;33995;48.202;16.260;2024-01-30T11:15:47;17.00;91.00
48206;DHT22;33995;48.202;16.260;2024-01-30T11:18:27;17.00;91.10
48206;DHT22;33995;48.202;16.260;2024-01-30T11:20:59;17.10;91.00
48206;DHT22;33995;48.202;16.260;2024-01-30T11:23:33;18.40;90.20
48206;DHT22;33995;48.202;16.260;2024-01-30T11:26:04;18.40;88.40
48206;DHT22;33995;48.202;16.260;2024-01-30T11:28:37;18.60;87.90
48206;DHT22;33995;48.202;16.260;2024-01-30T11:31:05;18.90;86.10
48206;DHT22;33995;48.202;16.260;2024-01-30T11:33:34;18.10;87.70
48206;DHT22;33995;48.202;16.260;2024-01-30T11:36:01;17.00;87.10
48206;DHT22;33995;48.202;16.260;2024-01-30T11:38:34;17.30;87.60
48206;DHT22;33995;48.202;16.260;2024-01-30T11:41:04;17.90;87.50
48206;DHT22;33995;48.202;16.260;2024-01-30T11:43:31;18.80;84.60
48206;DHT22;33995;48.202;16.260;2024-01-30T11:46:02;18.60;84.60
48206;DHT22;33995;48.202;16.260;2024-01-30T11:48:31;19.50;84.30
48206;DHT22;33995;48.202;16.260;2024-01-30T11:50:58;21.20;79.50
48206;DHT22;33995;48.202;16.260;2024-01-30T11:53:26;22.10;77.30
48206;DHT22;33995;48.202;16.260;2024-01-30T11:55:54;22.60;74.30
48206;DHT22;33995;48.202;16.260;2024-01-30T11:58:25;22.00;73.60
48206;DHT22;33995;48.202;16.260;2024-01-30T12:00:54;22.60;73.10
48206;DHT22;33995;48.202;16.260;2024-01-30T12:03:22;22.30;72.60
48206;DHT22;33995;48.202;16.260;2024-01-30T12:05:59;22.90;72.10
48206;DHT22;33995;48.202;16.260;2024-01-30T12:08:28;23.30;70.70
48206;DHT22;33995;48.202;16.260;2024-01-30T12:10:58;23.80;70.40
48206;DHT22;33995;48.202;16.260;2024-01-30T12:13:26;23.70;69.60
48206;DHT22;33995;48.202;16.260;2024-01-30T12:16:00;24.10;67.80
48206;DHT22;33995;48.202;16.260;2024-01-30T12:18:28;23.90;68.90
48206;DHT22;33995;48.202;16.260;2024-01-30T12:21:04;23.00;68.50
48206;DHT22;33995;48.202;16.260;2024-01-30T12:23:32;23.90;68.40
48206;DHT22;33995;48.202;16.260;2024-01-30T12:25:59;24.10;67.20
48206;DHT22;33995;48.202;16.260;2024-01-30T12:28:26;23.50;67.30
48206;DHT22;33995;48.202;16.260;2024-01-30T12:30:56;22.10;69.40
48206;DHT22;33995;48.202;16.260;2024-01-30T12:33:31;22.70;69.00
48206;DHT22;33995;48.202;16.260;2024-01-30T12:36:02;21.80;69.30
48206;DHT22;33995;48.202;16.260;2024-01-30T12:38:33;22.60;68.40
48206;DHT22;33995;48.202;16.260;2024-01-30T12:41:00;22.10;69.00
48206;DHT22;33995;48.202;16.260;2024-01-30T12:43:27;21.30;71.00
48206;DHT22;33995;48.202;16.260;2024-01-30T12:46:05;21.40;70.60
48206;DHT22;33995;48.202;16.260;2024-01-30T12:48:33;20.10;73.20
48206;DHT22;33995;48.202;16.260;2024-01-30T12:51:00;20.60;73.60
48206;DHT22;33995;48.202;16.260;2024-01-30T12:53:30;20.30;72.40
48206;DHT22;33995;48.202;16.260;2024-01-30T12:55:57;20.10;73.10
48206;DHT22;33995;48.202;16.260;2024-01-30T12:58:27;20.70;73.00
48206;DHT22;33995;48.202;16.260;2024-01-30T13:00:54;21.80;71.30
48206;DHT22;33995;48.202;16.260;2024-01-30T13:03:22;22.00;69.70
48206;DHT22;33995;48.202;16.260;2024-01-30T13:05:49;22.80;69.40
48206;DHT22;33995;48.202;16.260;2024-01-30T13:08:19;22.40;68.70
48206;DHT22;33995;48.202;16.260;2024-01-30T13:10:46;22.20;69.60
48206;DHT22;33995;48.202;16.260;2024-01-30T13:13:16;22.20;69.20
48206;DHT22;33995;48.202;16.260;2024-01-30T13:15:47;21.40;71.40
48206;DHT22;33995;48.202;16.260;2024-01-30T13:18:18;19.30;74.30
48206;DHT22;33995;48.202;16.260;2024-01-30T13:20:45;17.90;77.30
48206;DHT22;33995;48.202;16.260;2024-01-30T13:23:12;17.50;78.80
48206;DHT22;33995;48.202;16.260;2024-01-30T13:25:39;16.60;80.50
48206;DHT22;33995;48.202;16.260;2024-01-30T13:28:09;15.50;83.30
48206;DHT22;33995;48.202;16.260;2024-01-30T13:30:39;16.10;83.00
48206;DHT22;33995;48.202;16.260;2024-01-30T13:33:06;15.10;84.20
48206;DHT22;33995;48.202;16.260;2024-01-30T13:35:33;15.10;85.80
48206;DHT22;33995;48.202;16.260;2024-01-30T13:38:01;15.40;85.10
48206;DHT22;33995;48.202;16.260;2024-01-30T13:40:28;16.80;83.50
48206;DHT22;33995;48.202;16.260;2024-01-30T13:42:56;17.80;80.50
48206;DHT22;33995;48.202;16.260;2024-01-30T13:45:24;17.80;79.40
48206;DHT22;33995;48.202;16.260;2024-01-30T13:47:52;17.10;80.00
48206;DHT22;33995;48.202;16.260;2024-01-30T13:50:22;16.10;81.50
48206;DHT22;33995;48.202;16.260;2024-01-30T13:52:49;14.60;85.70
48206;DHT22;33995;48.202;16.260;2024-01-30T13:55:17;14.60;86.30
48206;DHT22;33995;48.202;16.260;2024-01-30T13:57:44;13.60;88.90
48206;DHT22;33995;48.202;16.260;2024-01-30T14:00:13;13.00;89.90
48206;DHT22;33995;48.202;16.260;2024-01-30T14:02:46;12.70;90.40
48206;DHT22;33995;48.202;16.260;2024-01-30T14:05:13;11.70;91.60
48206;DHT22;33995;48.202;16.260;2024-01-30T14:07:46;11.20;92.70
48206;DHT22;33995;48.202;16.260;2024-01-30T14:10:15;10.50;93.50
48206;DHT22;33995;48.202;16.260;2024-01-30T14:12:43;10.30;94.20
48206;DHT22;33995;48.202;16.260;2024-01-30T14:15:14;10.20;94.20
48206;DHT22;33995;48.202;16.260;2024-01-30T14:17:57;10.10;94.50
48206;DHT22;33995;48.202;16.260;2024-01-30T14:20:25;10.80;94.40
48206;DHT22;33995;48.202;16.260;2024-01-30T14:22:53;10.80;93.90
48206;DHT22;33995;48.202;16.260;2024-01-30T14:25:26;10.20;94.50
48206;DHT22;33995;48.202;16.260;2024-01-30T14:27:53;9.80;95.20
48206;DHT22;33995;48.202;16.260;2024-01-30T14:30:21;9.40;95.70
48206;DHT22;33995;48.202;16.260;2024-01-30T14:32:48;9.20;96.40
48206;DHT22;33995;48.202;16.260;2024-01-30T14:35:16;9.20;96.70
48206;DHT22;33995;48.202;16.260;2024-01-30T14:37:43;9.30;96.70
48206;DHT22;33995;48.202;16.260;2024-01-30T14:40:10;9.70;96.50
48206;DHT22;33995;48.202;16.260;2024-01-30T14:42:42;9.40;96.40
48206;DHT22;33995;48.202;16.260;2024-01-30T14:45:10;9.10;96.80
48206;DHT22;33995;48.202;16.260;2024-01-30T14:47:38;9.10;97.00
48206;DHT22;33995;48.202;16.260;2024-01-30T14:50:06;9.10;97.50
48206;DHT22;33995;48.202;16.260;2024-01-30T14:52:36;9.40;97.00
48206;DHT22;33995;48.202;16.260;2024-01-30T14:55:04;9.20;96.90
48206;DHT22;33995;48.202;16.260;2024-01-30T14:57:32;8.70;97.70
48206;DHT22;33995;48.202;16.260;2024-01-30T14:59:59;8.40;98.30
48206;DHT22;33995;48.202;16.260;2024-01-30T15:02:26;8.20;98.70
48206;DHT22;33995;48.202;16.260;2024-01-30T15:04:56;8.10;99.00
48206;DHT22;33995;48.202;16.260;2024-01-30T15:07:23;7.90;99.50
48206;DHT22;33995;48.202;16.260;2024-01-30T15:10:04;7.70;99.90
48206;DHT22;33995;48.202;16.260;2024-01-30T15:12:32;7.50;99.90
48206;DHT22;33995;48.202;16.260;2024-01-30T15:14:59;7.50;99.90
48206;DHT22;33995;48.202;16.260;2024-01-30T15:17:30;7.30;99.90
48206;DHT22;33995;48.202;16.260;2024-01-30T15:20:00;7.30;99.90
48206;DHT22;33995;48.202;16.260;2024-01-30T15:22:29;7.20;99.90
48206;DHT22;33995;48.202;16.260;2024-01-30T15:24:57;7.20;99.90
48206;DHT22;33995;48.202;16.260;2024-01-30T15:27:24;7.00;99.90
48206;DHT22;33995;48.202;16.260;2024-01-30T15:29:57;6.90;99.90
48206;DHT22;33995;48.202;16.260;2024-01-30T15:32:23;6.90;99.90
48206;DHT22;33995;48.202;16.260;2024-01-30T15:34:51;6.90;99.90
48206;DHT22;33995;48.202;16.260;2024-01-30T15:37:19;6.70;99.90